Time;durP1;ratioP1;P1;durP2;ratioP2;P2;SDS_P1;SDS_P2;PMS_P1;PMS_P2;Temp;Humidity;BMP_temperature;BMP_pressure;BME280_temperature;BME280_humidity;BME280_pressure;Samples;Min_cycle;Max_cycle;Signal;HPM_P1;HPM_P2
2022/04/11 00:00:00;;;;;;;45.20;19.50;;;;;;;;;;4939691;29;20126;-58
2022/04/11 00:02:26;;;;;;;19.13;9.60;;;;;;;;;;4939533;29;20027;-57
2022/04/11 00:04:53;;;;;;;24.85;9.30;;;;;;;;;;4939045;29;20024;-59
2022/04/11 00:07:19;;;;;;;18.45;8.38;;;;;;;;;;4939261;29;20030;-54
2022/04/11 00:09:45;;;;;;;25.58;10.05;;;;;;;;;;4939732;29;20099;-54
2022/04/11 00:12:11;;;;;;;35.72;12.95;;;;;;;;;;4939153;29;20031;-56
2022/04/11 00:14:38;;;;;;;69.35;21.63;;;;;;;;;;4939171;29;20031;-57
2022/04/11 00:17:05;;;;;;;28.50;10.95;;;;;;;;;;4939397;29;20466;-54
2022/04/11 00:19:31;;;;;;;72.80;23.80;;;;;;;;;;4938957;29;20036;-59
2022/04/11 00:21:57;;;;;;;32.90;12.23;;;;;;;;;;4939216;29;20060;-57
2022/04/11 00:24:23;;;;;;;34.97;12.95;;;;;;;;;;4939035;29;20133;-59
2022/04/11 00:26:49;;;;;;;29.50;11.73;;;;;;;;;;4939164;29;20032;-59
2022/04/11 00:29:15;;;;;;;15.25;7.00;;;;;;;;;;4938938;29;20024;-58
2022/04/11 00:31:41;;;;;;;12.63;6.38;;;;;;;;;;4938562;29;20020;-56
2022/04/11 00:34:07;;;;;;;13.95;7.80;;;;;;;;;;4939346;29;20035;-58
2022/04/11 00:36:34;;;;;;;12.77;6.93;;;;;;;;;;4938770;29;20020;-60
2022/04/11 00:39:00;;;;;;;16.40;6.13;;;;;;;;;;4938697;29;20020;-57
2022/04/11 00:41:26;;;;;;;13.48;5.50;;;;;;;;;;4938865;29;20477;-55
2022/04/11 00:43:52;;;;;;;8.70;5.32;;;;;;;;;;4938837;29;20031;-56
2022/04/11 00:46:18;;;;;;;7.82;4.72;;;;;;;;;;4938791;29;20039;-55
2022/04/11 00:48:44;;;;;;;8.55;5.55;;;;;;;;;;4938836;29;20521;-58
2022/04/11 00:51:12;;;;;;;8.52;4.88;;;;;;;;;;4938535;29;20035;-56
2022/04/11 00:53:40;;;;;;;12.38;6.88;;;;;;;;;;4938081;29;20028;-57
2022/04/11 00:56:11;;;;;;;10.65;5.50;;;;;;;;;;4938704;29;20075;-54
2022/04/11 00:58:38;;;;;;;8.02;5.32;;;;;;;;;;4938370;29;20027;-58
2022/04/11 01:01:05;;;;;;;10.55;6.03;;;;;;;;;;4938341;29;20031;-58
2022/04/11 01:03:32;;;;;;;8.02;5.03;;;;;;;;;;4938498;29;20111;-57
2022/04/11 01:05:58;;;;;;;8.23;4.57;;;;;;;;;;4937338;29;20075;-58
2022/04/11 01:08:24;;;;;;;8.90;4.63;;;;;;;;;;4938192;29;20024;-59
2022/04/11 01:10:52;;;;;;;11.93;4.72;;;;;;;;;;4938140;29;20102;-58
2022/04/11 01:13:18;;;;;;;7.75;5.03;;;;;;;;;;4937852;29;20052;-58
2022/04/11 01:16:10;;;;;;;7.97;4.60;;;;;;;;;;4937996;29;20034;-59
2022/04/11 01:18:37;;;;;;;9.50;4.53;;;;;;;;;;4935424;29;20040;-58
2022/04/11 01:21:05;;;;;;;9.80;5.07;;;;;;;;;;4937923;29;20059;-56
2022/04/11 01:23:31;;;;;;;6.55;4.70;;;;;;;;;;4938385;29;20062;-56
2022/04/11 01:25:57;;;;;;;6.25;3.90;;;;;;;;;;4938462;29;20099;-59
2022/04/11 01:28:23;;;;;;;11.52;4.82;;;;;;;;;;4937743;29;20020;-59
2022/04/11 01:30:54;;;;;;;6.40;4.55;;;;;;;;;;4938052;29;20087;-60
2022/04/11 01:33:28;;;;;;;7.20;4.13;;;;;;;;;;4938004;29;20111;-59
2022/04/11 01:35:54;;;;;;;7.30;4.60;;;;;;;;;;4937908;29;20047;-57
2022/04/11 01:38:20;;;;;;;6.85;4.50;;;;;;;;;;4937649;29;20102;-58
2022/04/11 01:40:48;;;;;;;7.18;4.80;;;;;;;;;;4937621;29;20377;-58
2022/04/11 01:43:14;;;;;;;8.30;5.05;;;;;;;;;;4937418;29;20043;-60
2022/04/11 01:45:40;;;;;;;9.52;4.68;;;;;;;;;;4937540;29;20024;-58
2022/04/11 01:48:06;;;;;;;7.47;4.75;;;;;;;;;;4937705;29;20034;-56
2022/04/11 01:50:33;;;;;;;11.75;4.88;;;;;;;;;;4937131;29;20028;-56
2022/04/11 01:53:09;;;;;;;10.27;4.90;;;;;;;;;;4937688;29;20059;-55
2022/04/11 01:55:35;;;;;;;8.45;4.40;;;;;;;;;;4936683;29;20059;-56
2022/04/11 01:58:02;;;;;;;8.07;4.90;;;;;;;;;;4937434;29;20020;-58
2022/04/11 02:00:28;;;;;;;8.95;5.43;;;;;;;;;;4937529;29;20028;-52
2022/04/11 02:02:54;;;;;;;14.57;7.43;;;;;;;;;;4937156;29;20028;-56
2022/04/11 02:05:21;;;;;;;11.13;6.15;;;;;;;;;;4937641;29;20110;-58
2022/04/11 02:07:47;;;;;;;9.95;5.85;;;;;;;;;;4937668;29;20043;-56
2022/04/11 02:10:13;;;;;;;12.90;6.47;;;;;;;;;;4936763;29;20023;-58
2022/04/11 02:12:39;;;;;;;9.10;5.25;;;;;;;;;;4937316;29;20048;-59
2022/04/11 02:15:06;;;;;;;8.75;4.72;;;;;;;;;;4937469;29;20027;-59
2022/04/11 02:17:32;;;;;;;8.38;4.00;;;;;;;;;;4936803;29;20027;-55
2022/04/11 02:19:59;;;;;;;10.60;4.18;;;;;;;;;;4937168;29;20024;-58
2022/04/11 02:22:25;;;;;;;7.40;4.50;;;;;;;;;;4936709;29;20034;-57
2022/04/11 02:24:51;;;;;;;5.78;4.30;;;;;;;;;;4936370;29;20027;-59
2022/04/11 02:27:17;;;;;;;9.18;4.88;;;;;;;;;;4936766;29;20046;-57
2022/04/11 02:29:43;;;;;;;8.85;4.57;;;;;;;;;;4937041;29;20412;-58
2022/04/11 02:32:09;;;;;;;9.27;5.35;;;;;;;;;;4936450;29;20429;-58
2022/04/11 02:34:36;;;;;;;10.07;5.30;;;;;;;;;;4936666;29;20020;-59
2022/04/11 02:37:02;;;;;;;9.00;5.72;;;;;;;;;;4936664;29;20469;-58
2022/04/11 02:39:28;;;;;;;8.93;5.32;;;;;;;;;;4936294;29;20477;-57
2022/04/11 02:41:54;;;;;;;8.40;4.78;;;;;;;;;;4936796;29;20023;-58
2022/04/11 02:44:20;;;;;;;8.70;4.68;;;;;;;;;;4936447;29;20417;-59
2022/04/11 02:46:46;;;;;;;9.38;5.22;;;;;;;;;;4936761;29;20110;-59
2022/04/11 02:49:12;;;;;;;11.27;5.00;;;;;;;;;;4936628;29;20031;-60
2022/04/11 02:51:38;;;;;;;10.00;5.20;;;;;;;;;;4936250;29;20044;-58
2022/04/11 02:54:08;;;;;;;7.93;4.65;;;;;;;;;;4936555;29;20031;-55
2022/04/11 02:56:34;;;;;;;9.75;5.10;;;;;;;;;;4936660;29;20032;-59
2022/04/11 02:59:00;;;;;;;8.20;4.50;;;;;;;;;;4936225;29;20027;-58
2022/04/11 03:01:26;;;;;;;8.88;5.22;;;;;;;;;;4936320;29;20027;-58
2022/04/11 03:03:52;;;;;;;7.47;4.65;;;;;;;;;;4936417;29;20381;-60
2022/04/11 03:06:19;;;;;;;10.05;4.85;;;;;;;;;;4936173;29;20446;-58
2022/04/11 03:08:45;;;;;;;5.80;3.97;;;;;;;;;;4936458;29;20031;-57
2022/04/11 03:11:11;;;;;;;8.40;4.10;;;;;;;;;;4936367;29;20051;-57
2022/04/11 03:13:37;;;;;;;7.10;3.97;;;;;;;;;;4936165;29;20035;-57
2022/04/11 03:16:03;;;;;;;8.75;4.05;;;;;;;;;;4936201;29;20106;-60
2022/04/11 03:18:29;;;;;;;8.52;3.67;;;;;;;;;;4936382;29;20046;-58
2022/04/11 03:20:55;;;;;;;5.75;3.25;;;;;;;;;;4936216;29;20059;-58
2022/04/11 03:23:21;;;;;;;10.27;3.72;;;;;;;;;;4935991;29;20031;-60
2022/04/11 03:25:48;;;;;;;7.43;3.53;;;;;;;;;;4936243;29;20039;-58
2022/04/11 03:28:14;;;;;;;7.00;3.28;;;;;;;;;;4935829;29;20024;-57
2022/04/11 03:30:40;;;;;;;5.97;3.70;;;;;;;;;;4939824;29;20393;-59
2022/04/11 03:33:06;;;;;;;5.53;3.53;;;;;;;;;;4939973;29;20425;-57
2022/04/11 03:35:32;;;;;;;7.57;3.60;;;;;;;;;;4939486;29;20433;-57
2022/04/11 03:37:58;;;;;;;6.32;3.20;;;;;;;;;;4940119;29;20031;-59
2022/04/11 03:40:24;;;;;;;5.07;3.25;;;;;;;;;;4939472;29;20028;-58
2022/04/11 03:42:50;;;;;;;5.43;3.58;;;;;;;;;;4939648;29;20090;-59
2022/04/11 03:45:17;;;;;;;8.20;3.38;;;;;;;;;;4939678;29;20066;-57
2022/04/11 03:47:43;;;;;;;8.85;3.65;;;;;;;;;;4938468;29;20020;-58
2022/04/11 03:50:09;;;;;;;4.68;3.00;;;;;;;;;;4939905;29;20111;-57
2022/04/11 03:52:35;;;;;;;7.38;4.07;;;;;;;;;;4939554;29;20048;-59
2022/04/11 03:55:03;;;;;;;6.18;3.20;;;;;;;;;;4939493;29;20511;-60
2022/04/11 03:57:30;;;;;;;5.72;3.88;;;;;;;;;;4939838;29;20163;-60
2022/04/11 03:59:56;;;;;;;7.35;4.03;;;;;;;;;;4939390;29;20023;-59
2022/04/11 04:02:22;;;;;;;6.95;3.75;;;;;;;;;;4938908;29;20213;-59
2022/04/11 04:04:53;;;;;;;7.22;4.18;;;;;;;;;;4939396;29;20027;-60
2022/04/11 04:07:22;;;;;;;11.80;6.50;;;;;;;;;;4939319;29;20032;-59
2022/04/11 04:09:48;;;;;;;8.25;4.78;;;;;;;;;;4938678;29;20110;-58
2022/04/11 04:12:18;;;;;;;11.00;3.88;;;;;;;;;;4939041;29;20031;-59
2022/04/11 04:14:44;;;;;;;8.75;4.40;;;;;;;;;;4939232;29;20373;-58
2022/04/11 04:17:10;;;;;;;7.75;4.20;;;;;;;;;;4938752;29;20048;-56
2022/04/11 04:19:44;;;;;;;12.27;4.90;;;;;;;;;;4939721;29;20108;-57
2022/04/11 04:22:17;;;;;;;15.07;4.60;;;;;;;;;;4938581;29;20362;-58
2022/04/11 04:24:44;;;;;;;8.05;3.92;;;;;;;;;;4938968;29;20071;-58
2022/04/11 04:27:10;;;;;;;6.30;3.80;;;;;;;;;;4938460;29;20028;-54
2022/04/11 04:29:37;;;;;;;10.15;4.00;;;;;;;;;;4937011;29;20030;-59
2022/04/11 04:32:03;;;;;;;7.30;3.60;;;;;;;;;;4938812;29;20034;-58
2022/04/11 04:34:30;;;;;;;29.60;13.82;;;;;;;;;;4939006;29;20035;-58
2022/04/11 04:36:58;;;;;;;13.63;7.82;;;;;;;;;;4938062;29;20055;-58
2022/04/11 04:39:24;;;;;;;17.08;8.45;;;;;;;;;;4936456;29;20103;-59
2022/04/11 04:41:50;;;;;;;16.00;8.85;;;;;;;;;;4939071;29;20031;-59
2022/04/11 04:44:16;;;;;;;16.65;8.13;;;;;;;;;;4937283;29;20028;-59
2022/04/11 04:46:42;;;;;;;15.90;8.77;;;;;;;;;;4939139;29;20035;-57
2022/04/11 04:49:08;;;;;;;12.15;5.72;;;;;;;;;;4938367;29;20032;-56
2022/04/11 04:51:35;;;;;;;11.57;5.97;;;;;;;;;;4937664;29;20060;-58
2022/04/11 04:54:01;;;;;;;13.60;6.18;;;;;;;;;;4937524;29;20433;-57
2022/04/11 04:56:28;;;;;;;21.25;11.15;;;;;;;;;;4938695;29;20028;-57
2022/04/11 04:58:55;;;;;;;15.35;9.23;;;;;;;;;;4938104;29;20043;-57
2022/04/11 05:01:21;;;;;;;14.93;7.88;;;;;;;;;;4938573;29;20040;-59
2022/04/11 05:03:47;;;;;;;16.75;7.47;;;;;;;;;;4938177;29;20035;-58
2022/04/11 05:06:13;;;;;;;19.40;10.73;;;;;;;;;;4938015;29;20350;-59
2022/04/11 05:08:39;;;;;;;19.58;10.10;;;;;;;;;;4938480;29;20035;-59
2022/04/11 05:11:05;;;;;;;27.63;13.60;;;;;;;;;;4938483;29;20350;-59
2022/04/11 05:13:32;;;;;;;28.38;12.85;;;;;;;;;;4937764;29;20024;-56
2022/04/11 05:15:58;;;;;;;23.00;10.82;;;;;;;;;;4938324;29;20028;-59
2022/04/11 05:18:25;;;;;;;14.52;7.00;;;;;;;;;;4937573;29;20474;-59
2022/04/11 05:20:51;;;;;;;13.13;7.28;;;;;;;;;;4937936;29;20028;-60
2022/04/11 05:23:19;;;;;;;9.82;5.88;;;;;;;;;;4938020;29;20034;-57
2022/04/11 05:25:45;;;;;;;11.43;6.32;;;;;;;;;;4936102;29;20373;-59
2022/04/11 05:28:11;;;;;;;12.15;5.68;;;;;;;;;;4937792;29;20024;-59
2022/04/11 05:30:37;;;;;;;9.20;5.18;;;;;;;;;;4938071;29;20023;-58
2022/04/11 05:33:03;;;;;;;10.75;5.07;;;;;;;;;;4937597;29;20473;-58
2022/04/11 05:35:30;;;;;;;10.43;5.65;;;;;;;;;;4937687;29;20028;-60
2022/04/11 05:37:56;;;;;;;17.63;8.55;;;;;;;;;;4937385;29;20039;-59
2022/04/11 05:40:22;;;;;;;18.70;8.27;;;;;;;;;;4936172;29;20398;-60
2022/04/11 05:42:48;;;;;;;21.55;9.98;;;;;;;;;;4937959;29;20024;-57
2022/04/11 05:45:15;;;;;;;13.40;5.63;;;;;;;;;;4937406;29;20040;-57
2022/04/11 05:47:41;;;;;;;16.95;9.05;;;;;;;;;;4936224;29;20028;-55
2022/04/11 05:50:07;;;;;;;22.42;8.68;;;;;;;;;;4937797;29;20042;-58
2022/04/11 05:52:33;;;;;;;15.38;6.20;;;;;;;;;;4937190;29;20051;-60
2022/04/11 05:55:00;;;;;;;9.05;5.70;;;;;;;;;;4937347;29;20079;-56
2022/04/11 05:57:26;;;;;;;10.57;4.38;;;;;;;;;;4936616;29;20324;-57
2022/04/11 05:59:52;;;;;;;6.65;3.78;;;;;;;;;;4936723;29;20028;-59
2022/04/11 06:02:18;;;;;;;6.88;3.22;;;;;;;;;;4935458;29;20023;-59
2022/04/11 06:04:44;;;;;;;5.93;3.70;;;;;;;;;;4935862;29;20032;-59
2022/04/11 06:07:10;;;;;;;8.70;2.90;;;;;;;;;;4936681;29;20034;-59
2022/04/11 06:09:37;;;;;;;4.63;2.42;;;;;;;;;;4936269;29;20380;-58
2022/04/11 06:12:03;;;;;;;5.10;3.33;;;;;;;;;;4937022;29;20430;-59
2022/04/11 06:14:29;;;;;;;5.50;3.17;;;;;;;;;;4936947;29;20039;-58
2022/04/11 06:16:55;;;;;;;6.80;3.28;;;;;;;;;;4937520;29;20034;-55
2022/04/11 06:19:21;;;;;;;10.88;3.10;;;;;;;;;;4937214;29;20050;-59
2022/04/11 06:21:47;;;;;;;9.48;3.15;;;;;;;;;;4937091;29;20028;-62
2022/04/11 06:24:13;;;;;;;6.95;3.33;;;;;;;;;;4937156;29;20090;-60
2022/04/11 06:26:40;;;;;;;6.35;2.95;;;;;;;;;;4937105;29;20039;-59
2022/04/11 06:29:06;;;;;;;5.72;2.63;;;;;;;;;;4936804;29;20039;-58
2022/04/11 06:31:32;;;;;;;3.45;2.63;;;;;;;;;;4937022;29;20502;-56
2022/04/11 06:33:58;;;;;;;7.78;3.15;;;;;;;;;;4936988;29;20027;-56
2022/04/11 06:36:24;;;;;;;5.40;2.53;;;;;;;;;;4936385;29;20016;-52
2022/04/11 06:38:50;;;;;;;5.38;2.90;;;;;;;;;;4936903;29;20024;-55
2022/04/11 06:41:16;;;;;;;4.10;2.15;;;;;;;;;;4936833;29;20027;-57
2022/04/11 06:43:42;;;;;;;6.00;2.70;;;;;;;;;;4936458;29;20135;-55
2022/04/11 06:46:08;;;;;;;4.95;2.67;;;;;;;;;;4936547;29;20032;-57
2022/04/11 06:48:35;;;;;;;3.85;2.15;;;;;;;;;;4936034;29;20035;-58
2022/04/11 06:51:01;;;;;;;5.55;2.38;;;;;;;;;;4936118;29;20107;-52
2022/04/11 06:53:27;;;;;;;7.78;2.20;;;;;;;;;;4936514;29;20134;-55
2022/04/11 06:55:53;;;;;;;5.43;2.70;;;;;;;;;;4936327;29;20031;-56
2022/04/11 06:58:19;;;;;;;8.10;2.97;;;;;;;;;;4936212;29;20489;-57
2022/04/11 07:00:46;;;;;;;2.83;2.00;;;;;;;;;;4936493;29;20028;-53
2022/04/11 07:03:12;;;;;;;7.28;2.92;;;;;;;;;;4936582;29;20107;-55
2022/04/11 07:05:39;;;;;;;9.93;2.55;;;;;;;;;;4935983;29;20043;-57
2022/04/11 07:08:06;;;;;;;8.55;2.40;;;;;;;;;;4936921;29;20102;-54
2022/04/11 07:10:32;;;;;;;3.33;2.42;;;;;;;;;;4936177;29;20028;-59
2022/04/11 07:12:59;;;;;;;6.32;2.28;;;;;;;;;;4936110;29;20036;-52
2022/04/11 07:15:25;;;;;;;3.15;2.08;;;;;;;;;;4936114;29;20034;-56
2022/04/11 07:17:51;;;;;;;3.00;1.80;;;;;;;;;;4936167;29;20028;-54
2022/04/11 07:20:17;;;;;;;5.68;2.63;;;;;;;;;;4936117;29;20024;-53
2022/04/11 07:22:43;;;;;;;5.55;2.65;;;;;;;;;;4936291;29;20496;-56
2022/04/11 07:25:10;;;;;;;4.35;2.60;;;;;;;;;;4935735;29;20389;-54
2022/04/11 07:27:36;;;;;;;5.00;2.22;;;;;;;;;;4936383;29;20024;-57
2022/04/11 07:30:04;;;;;;;5.38;2.10;;;;;;;;;;4936025;29;20433;-57
2022/04/11 07:32:30;;;;;;;7.38;2.17;;;;;;;;;;4935931;29;20111;-55
2022/04/11 07:34:59;;;;;;;5.45;2.25;;;;;;;;;;4936309;29;20028;-57
2022/04/11 07:37:27;;;;;;;6.80;1.70;;;;;;;;;;4936646;29;20059;-52
2022/04/11 07:39:54;;;;;;;3.63;1.90;;;;;;;;;;4935871;29;20024;-53
2022/04/11 07:42:20;;;;;;;3.88;2.03;;;;;;;;;;4936216;29;20493;-55
2022/04/11 07:44:46;;;;;;;5.38;2.85;;;;;;;;;;4936588;29;20043;-54
2022/04/11 07:47:13;;;;;;;3.72;2.47;;;;;;;;;;4935617;29;20381;-52
2022/04/11 07:49:40;;;;;;;7.10;3.60;;;;;;;;;;4935715;29;20020;-53
2022/04/11 07:52:07;;;;;;;10.25;3.35;;;;;;;;;;4936100;29;20075;-53
2022/04/11 07:54:33;;;;;;;6.35;3.35;;;;;;;;;;4935727;29;20119;-51
2022/04/11 07:56:59;;;;;;;5.80;3.25;;;;;;;;;;4936590;29;20059;-53
2022/04/11 07:59:25;;;;;;;6.75;2.42;;;;;;;;;;4935502;29;20020;-53
2022/04/11 08:01:52;;;;;;;5.65;2.83;;;;;;;;;;4936102;29;20341;-52
2022/04/11 08:04:18;;;;;;;4.45;2.10;;;;;;;;;;4936040;29;20024;-53
2022/04/11 08:06:45;;;;;;;6.32;2.72;;;;;;;;;;4935491;29;20061;-50
2022/04/11 08:09:11;;;;;;;5.63;3.20;;;;;;;;;;4936029;29;20043;-55
2022/04/11 08:11:37;;;;;;;7.20;3.00;;;;;;;;;;4935549;29;20031;-55
2022/04/11 08:14:03;;;;;;;4.40;1.85;;;;;;;;;;4935660;29;20034;-53
2022/04/11 08:16:29;;;;;;;5.07;1.50;;;;;;;;;;4939121;29;20477;-50
2022/04/11 08:18:56;;;;;;;5.18;1.88;;;;;;;;;;4939722;29;20026;-51
2022/04/11 08:21:22;;;;;;;2.53;1.77;;;;;;;;;;4938838;29;20036;-53
2022/04/11 08:23:48;;;;;;;3.78;2.25;;;;;;;;;;4939183;29;20028;-47
2022/04/11 08:26:14;;;;;;;5.78;2.70;;;;;;;;;;4939373;29;20032;-50
2022/04/11 08:28:40;;;;;;;3.60;1.80;;;;;;;;;;4938339;29;20425;-49
2022/04/11 08:31:07;;;;;;;5.32;2.33;;;;;;;;;;4938849;29;20381;-50
2022/04/11 08:33:33;;;;;;;5.18;2.75;;;;;;;;;;4939013;29;20078;-52
2022/04/11 08:35:59;;;;;;;5.00;2.08;;;;;;;;;;4938638;29;20039;-52
2022/04/11 08:38:25;;;;;;;4.18;2.00;;;;;;;;;;4939240;29;20382;-52
2022/04/11 08:40:54;;;;;;;6.18;2.40;;;;;;;;;;4938937;29;20070;-52
2022/04/11 08:43:26;;;;;;;3.08;1.83;;;;;;;;;;4938608;29;20039;-52
2022/04/11 08:45:55;;;;;;;9.35;3.03;;;;;;;;;;4937746;29;20515;-54
2022/04/11 08:48:22;;;;;;;3.88;2.20;;;;;;;;;;4938547;29;20485;-52
2022/04/11 08:50:48;;;;;;;4.80;1.98;;;;;;;;;;4938572;29;20368;-54
2022/04/11 08:53:15;;;;;;;4.55;2.47;;;;;;;;;;4938378;29;20059;-54
2022/04/11 08:55:41;;;;;;;3.13;2.03;;;;;;;;;;4938050;29;20031;-52
2022/04/11 08:58:08;;;;;;;6.28;2.80;;;;;;;;;;4938365;29;20078;-51
2022/04/11 09:00:34;;;;;;;4.35;2.00;;;;;;;;;;4938338;29;20028;-50
2022/04/11 09:03:00;;;;;;;4.57;1.98;;;;;;;;;;4938499;29;20492;-52
2022/04/11 09:05:29;;;;;;;6.05;2.35;;;;;;;;;;4938628;29;20030;-52
2022/04/11 09:07:56;;;;;;;3.92;2.42;;;;;;;;;;4938291;29;20366;-49
2022/04/11 09:10:23;;;;;;;4.28;2.05;;;;;;;;;;4938128;29;20038;-51
2022/04/11 09:12:53;;;;;;;4.03;2.22;;;;;;;;;;4938459;29;20027;-51
2022/04/11 09:15:20;;;;;;;3.22;2.05;;;;;;;;;;4938348;29;20512;-51
2022/04/11 09:17:47;;;;;;;4.50;1.90;;;;;;;;;;4937712;29;20036;-50
2022/04/11 09:20:19;;;;;;;3.17;1.60;;;;;;;;;;4937997;29;20035;-53
2022/04/11 09:22:46;;;;;;;2.80;1.60;;;;;;;;;;4938145;29;20484;-53
2022/04/11 09:25:22;;;;;;;3.40;1.52;;;;;;;;;;4937906;29;20032;-52
2022/04/11 09:27:49;;;;;;;4.53;1.85;;;;;;;;;;4937758;29;20027;-51
2022/04/11 09:30:23;;;;;;;4.35;1.52;;;;;;;;;;4937470;29;20386;-52
2022/04/11 09:32:52;;;;;;;3.90;1.83;;;;;;;;;;4937043;29;20110;-49
2022/04/11 09:35:25;;;;;;;3.55;1.98;;;;;;;;;;4937916;29;20488;-50
2022/04/11 09:38:08;;;;;;;5.13;1.75;;;;;;;;;;4937824;29;20042;-52
2022/04/11 09:40:48;;;;;;;4.10;1.73;;;;;;;;;;4937687;29;20024;-52
2022/04/11 09:43:15;;;;;;;4.45;2.13;;;;;;;;;;4937767;29;20394;-52
2022/04/11 09:45:53;;;;;;;3.10;2.05;;;;;;;;;;4937567;29;20166;-54
2022/04/11 09:48:24;;;;;;;4.35;1.88;;;;;;;;;;4937753;29;20028;-53
2022/04/11 09:50:51;;;;;;;4.55;1.90;;;;;;;;;;4937614;29;20024;-52
2022/04/11 09:53:18;;;;;;;4.82;1.48;;;;;;;;;;4936974;29;20052;-52
2022/04/11 09:55:45;;;;;;;4.03;1.75;;;;;;;;;;4937694;29;20035;-52
2022/04/11 09:58:11;;;;;;;3.58;1.70;;;;;;;;;;4937394;29;20023;-52
2022/04/11 10:00:43;;;;;;;3.10;1.60;;;;;;;;;;4937418;29;20119;-52
2022/04/11 10:03:09;;;;;;;;;;;;;;;;;;4937862;29;20035;-50
2022/04/11 10:05:35;;;;;;;3.97;2.25;;;;;;;;;;4937195;29;19906;-52
2022/04/11 10:08:06;;;;;;;5.13;1.85;;;;;;;;;;4937476;29;20026;-47
2022/04/11 10:10:38;;;;;;;2.80;1.58;;;;;;;;;;4937361;29;20020;-53
2022/04/11 10:13:05;;;;;;;2.75;1.35;;;;;;;;;;4937026;29;20111;-53
2022/04/11 10:15:32;;;;;;;3.53;1.63;;;;;;;;;;4937304;29;20106;-51
2022/04/11 10:17:58;;;;;;;3.65;1.80;;;;;;;;;;4937322;29;20036;-50
2022/04/11 10:20:25;;;;;;;3.13;1.58;;;;;;;;;;4936965;29;20039;-48
2022/04/11 10:22:56;;;;;;;4.20;1.50;;;;;;;;;;4936808;29;20046;-49
2022/04/11 10:25:22;;;;;;;2.08;1.30;;;;;;;;;;4935909;29;20066;-52
2022/04/11 10:28:08;;;;;;;5.15;1.75;;;;;;;;;;4936583;29;20031;-52
2022/04/11 10:30:34;;;;;;;3.15;1.30;;;;;;;;;;4937254;29;20055;-49
2022/04/11 10:33:00;;;;;;;2.38;1.40;;;;;;;;;;4936781;29;20019;-52
2022/04/11 10:35:52;;;;;;;3.28;1.55;;;;;;;;;;4936941;29;20024;-51
2022/04/11 10:38:20;;;;;;;4.22;1.70;;;;;;;;;;4932981;29;20058;-53
2022/04/11 10:40:49;;;;;;;3.97;1.58;;;;;;;;;;4936020;29;20034;-52
2022/04/11 10:43:17;;;;;;;4.03;1.13;;;;;;;;;;4936613;29;20042;-49
2022/04/11 10:45:57;;;;;;;3.75;1.23;;;;;;;;;;4936262;29;20434;-50
2022/04/11 10:48:43;;;;;;;2.47;1.75;;;;;;;;;;4936275;29;20145;-53
2022/04/11 10:51:16;;;;;;;4.97;1.45;;;;;;;;;;4936448;29;20024;-51
2022/04/11 10:54:02;;;;;;;2.67;1.52;;;;;;;;;;4936452;29;20031;-50
2022/04/11 10:56:48;;;;;;;6.05;1.98;;;;;;;;;;4936370;29;20457;-52
2022/04/11 10:59:25;;;;;;;2.70;1.50;;;;;;;;;;4936841;29;20023;-52
2022/04/11 11:01:54;;;;;;;5.05;2.10;;;;;;;;;;4936508;29;20028;-54
2022/04/11 11:04:21;;;;;;;3.00;1.85;;;;;;;;;;4936995;29;20063;-53
2022/04/11 11:06:47;;;;;;;3.53;1.70;;;;;;;;;;4936838;29;20102;-52
2022/04/11 11:09:17;;;;;;;3.60;1.58;;;;;;;;;;4936357;29;20032;-51
2022/04/11 11:11:45;;;;;;;3.50;1.77;;;;;;;;;;4937111;29;20047;-52
2022/04/11 11:14:31;;;;;;;4.93;1.95;;;;;;;;;;4936249;29;20035;-52
2022/04/11 11:17:00;;;;;;;3.15;1.65;;;;;;;;;;4936290;29;20028;-53
2022/04/11 11:19:26;;;;;;;3.95;2.08;;;;;;;;;;4936762;29;20068;-51
2022/04/11 11:21:52;;;;;;;4.07;1.50;;;;;;;;;;4936451;29;20020;-51
2022/04/11 11:24:19;;;;;;;6.82;1.80;;;;;;;;;;4935757;29;20036;-52
2022/04/11 11:26:46;;;;;;;3.45;1.63;;;;;;;;;;4936072;29;20038;-50
2022/04/11 11:29:20;;;;;;;3.40;1.10;;;;;;;;;;4936115;29;20386;-50
2022/04/11 11:31:48;;;;;;;2.58;1.20;;;;;;;;;;4936289;29;20031;-49
2022/04/11 11:34:15;;;;;;;3.03;1.38;;;;;;;;;;4935985;29;20442;-51
2022/04/11 11:36:42;;;;;;;3.28;1.75;;;;;;;;;;4936026;29;20087;-50
2022/04/11 11:39:13;;;;;;;4.55;1.55;;;;;;;;;;4936227;29;20043;-50
2022/04/11 11:41:42;;;;;;;3.90;1.80;;;;;;;;;;4936164;29;20028;-52
2022/04/11 11:44:09;;;;;;;4.53;1.60;;;;;;;;;;4935535;29;20107;-50
2022/04/11 11:46:51;;;;;;;3.28;1.58;;;;;;;;;;4936528;29;20027;-51
2022/04/11 11:49:18;;;;;;;2.53;1.30;;;;;;;;;;4936100;29;20094;-52
2022/04/11 11:51:45;;;;;;;2.35;2.00;;;;;;;;;;4939558;29;20066;-54
2022/04/11 11:54:11;;;;;;;4.53;1.95;;;;;;;;;;4939587;29;20028;-52
2022/04/11 11:56:41;;;;;;;4.10;2.22;;;;;;;;;;4939768;29;20491;-50
2022/04/11 11:59:07;;;;;;;2.70;1.33;;;;;;;;;;4939581;29;20098;-51
2022/04/11 12:01:33;;;;;;;1.45;1.00;;;;;;;;;;4939444;29;20023;-52
2022/04/11 12:04:18;;;;;;;2.83;1.25;;;;;;;;;;4939635;29;20044;-53
2022/04/11 12:06:44;;;;;;;2.20;1.35;;;;;;;;;;4939718;29;20024;-52
2022/04/11 12:09:10;;;;;;;2.38;1.23;;;;;;;;;;4939396;29;20099;-51
2022/04/11 12:11:37;;;;;;;2.13;1.50;;;;;;;;;;4939122;29;20472;-51
2022/04/11 12:14:07;;;;;;;1.95;1.40;;;;;;;;;;4939233;29;20035;-53
2022/04/11 12:16:34;;;;;;;4.53;1.80;;;;;;;;;;4939463;29;20040;-50
2022/04/11 12:19:01;;;;;;;3.53;1.48;;;;;;;;;;4938093;29;20119;-49
2022/04/11 12:21:37;;;;;;;3.55;1.40;;;;;;;;;;4938440;29;20035;-53
2022/04/11 12:24:04;;;;;;;3.63;1.90;;;;;;;;;;4939020;29;20039;-50
2022/04/11 12:26:30;;;;;;;3.38;1.77;;;;;;;;;;4938701;29;20027;-53
2022/04/11 12:28:57;;;;;;;6.88;1.65;;;;;;;;;;4939287;29;20035;-53
2022/04/11 12:31:23;;;;;;;3.30;2.20;;;;;;;;;;4937975;29;20374;-50
2022/04/11 12:33:50;;;;;;;3.55;1.90;;;;;;;;;;4938989;29;20051;-50
2022/04/11 12:36:20;;;;;;;4.55;1.73;;;;;;;;;;4938633;29;20027;-53
2022/04/11 12:38:49;;;;;;;2.55;1.58;;;;;;;;;;4938655;29;20435;-53
2022/04/11 12:41:29;;;;;;;3.63;1.65;;;;;;;;;;4938637;29;20422;-52
2022/04/11 12:44:02;;;;;;;5.43;2.20;;;;;;;;;;4939176;29;20039;-52
2022/04/11 12:46:28;;;;;;;3.67;1.92;;;;;;;;;;4938475;29;20497;-53
2022/04/11 12:48:56;;;;;;;4.28;1.80;;;;;;;;;;4938610;29;20028;-52
2022/04/11 12:51:22;;;;;;;4.25;1.90;;;;;;;;;;4937849;29;20035;-49
2022/04/11 12:53:48;;;;;;;4.22;2.05;;;;;;;;;;4937732;29;20055;-52
2022/04/11 12:56:14;;;;;;;2.47;2.08;;;;;;;;;;4938590;29;20099;-51
2022/04/11 12:58:41;;;;;;;2.40;1.80;;;;;;;;;;4938386;29;20087;-53
2022/04/11 13:01:07;;;;;;;2.92;1.70;;;;;;;;;;4938067;29;20024;-52
2022/04/11 13:03:34;;;;;;;2.55;1.65;;;;;;;;;;4938188;29;20032;-50
2022/04/11 13:06:02;;;;;;;3.40;1.77;;;;;;;;;;4938714;29;20115;-52
2022/04/11 13:08:30;;;;;;;3.35;1.40;;;;;;;;;;4937939;29;20086;-53
2022/04/11 13:10:58;;;;;;;3.97;1.30;;;;;;;;;;4938362;29;20028;-53
2022/04/11 13:13:26;;;;;;;1.85;1.38;;;;;;;;;;4938272;29;20038;-51
2022/04/11 13:18:37;;;;;;;4.20;1.80;;;;;;;;;;4938159;29;20118;-52
2022/04/11 13:21:03;;;;;;;4.47;1.60;;;;;;;;;;4938185;29;20585;-51
2022/04/11 13:23:29;;;;;;;3.08;1.58;;;;;;;;;;4937957;29;20036;-53
2022/04/11 13:25:55;;;;;;;1.75;1.20;;;;;;;;;;4938281;29;20026;-48
2022/04/11 13:28:22;;;;;;;3.42;1.90;;;;;;;;;;4937861;29;20020;-52
2022/04/11 13:30:49;;;;;;;3.72;1.90;;;;;;;;;;4938136;29;20461;-53
2022/04/11 13:33:18;;;;;;;3.72;2.25;;;;;;;;;;4938154;29;20488;-51
2022/04/11 13:35:44;;;;;;;4.63;2.20;;;;;;;;;;4937698;29;20028;-54
2022/04/11 13:38:11;;;;;;;4.47;1.92;;;;;;;;;;4937956;29;20030;-51
2022/04/11 13:40:37;;;;;;;4.32;1.25;;;;;;;;;;4937699;29;20028;-47
2022/04/11 13:43:03;;;;;;;4.22;2.20;;;;;;;;;;4937336;29;20044;-53
2022/04/11 13:45:30;;;;;;;5.60;2.10;;;;;;;;;;4937899;29;20028;-48
2022/04/11 13:47:56;;;;;;;5.68;1.67;;;;;;;;;;4937886;29;20038;-53
2022/04/11 13:50:22;;;;;;;3.72;1.80;;;;;;;;;;4937347;29;20388;-52
2022/04/11 13:52:48;;;;;;;4.25;1.95;;;;;;;;;;4936962;29;20122;-50
2022/04/11 13:55:14;;;;;;;6.55;2.15;;;;;;;;;;4937052;29;20505;-51
2022/04/11 13:57:40;;;;;;;3.45;1.50;;;;;;;;;;4936608;29;20032;-50
2022/04/11 14:00:06;;;;;;;5.45;2.75;;;;;;;;;;4937574;29;20051;-53
2022/04/11 14:02:32;;;;;;;5.35;2.70;;;;;;;;;;4937279;29;20035;-48
2022/04/11 14:04:59;;;;;;;3.58;1.60;;;;;;;;;;4936349;29;20362;-49
2022/04/11 14:07:25;;;;;;;5.53;2.70;;;;;;;;;;4937150;29;20024;-53
2022/04/11 14:09:51;;;;;;;5.25;2.65;;;;;;;;;;4936930;29;20038;-51
2022/04/11 14:12:17;;;;;;;3.63;2.10;;;;;;;;;;4936287;29;20028;-53
2022/04/11 14:14:43;;;;;;;4.35;2.00;;;;;;;;;;4937575;29;20436;-50
2022/04/11 14:17:10;;;;;;;3.97;2.28;;;;;;;;;;4936865;29;20038;-53
2022/04/11 14:19:36;;;;;;;3.97;2.38;;;;;;;;;;4935493;29;20031;-53
2022/04/11 14:22:02;;;;;;;4.32;2.67;;;;;;;;;;4935801;29;20441;-53
2022/04/11 14:24:28;;;;;;;3.35;1.60;;;;;;;;;;4935168;29;20038;-53
2022/04/11 14:26:54;;;;;;;3.60;1.83;;;;;;;;;;4936559;29;20059;-52
2022/04/11 14:29:21;;;;;;;5.68;2.17;;;;;;;;;;4936961;29;20023;-48
2022/04/11 14:31:47;;;;;;;4.63;1.65;;;;;;;;;;4936488;29;20561;-51
2022/04/11 14:34:13;;;;;;;3.70;1.88;;;;;;;;;;4936419;29;20032;-54
2022/04/11 14:36:39;;;;;;;3.60;2.03;;;;;;;;;;4935779;29;20219;-53
2022/04/11 14:39:05;;;;;;;3.92;1.75;;;;;;;;;;4935803;29;20437;-51
2022/04/11 14:41:31;;;;;;;6.53;2.40;;;;;;;;;;4935962;29;20396;-48
2022/04/11 14:43:58;;;;;;;4.85;2.42;;;;;;;;;;4936888;29;20034;-47